createdAt,value
2017-02-11T00:00:13.243Z,-2
2017-02-11T00:01:19.266Z,-2
2017-02-11T00:02:25.291Z,-2
2017-02-11T00:03:31.313Z,-2
2017-02-11T00:04:37.342Z,-2
2017-02-11T00:05:43.363Z,-2.1
2017-02-11T00:06:49.389Z,-2.1
2017-02-11T00:07:55.409Z,-2.1
2017-02-11T00:09:01.428Z,-2.1
2017-02-11T00:10:07.457Z,-2
2017-02-11T00:11:13.473Z,-2
2017-02-11T00:12:19.499Z,-2
2017-02-11T00:13:25.516Z,-1.9
2017-02-11T00:14:31.540Z,-1.9
2017-02-11T00:15:36.895Z,-1.9
2017-02-11T00:16:42.914Z,-2
2017-02-11T00:17:48.953Z,-1.9
2017-02-11T00:18:54.968Z,-1.9
2017-02-11T00:20:00.989Z,-1.9
2017-02-11T00:21:07.009Z,-1.8
2017-02-11T00:22:13.035Z,-1.8
2017-02-11T00:23:19.056Z,-1.8
2017-02-11T00:24:25.077Z,-1.8
2017-02-11T00:25:31.101Z,-1.7
2017-02-11T00:26:37.125Z,-1.8
2017-02-11T00:27:43.151Z,-1.8
2017-02-11T00:28:49.170Z,-1.8
2017-02-11T00:29:55.189Z,-1.8
2017-02-11T00:31:00.115Z,-1.8
2017-02-11T00:32:06.135Z,-1.8
2017-02-11T00:33:12.157Z,-1.8
2017-02-11T00:34:18.188Z,-1.7
2017-02-11T00:35:24.214Z,-1.8
2017-02-11T00:36:29.578Z,-1.8
2017-02-11T00:37:34.935Z,-1.8
2017-02-11T00:38:40.960Z,-1.8
2017-02-11T00:39:46.983Z,-1.8
2017-02-11T00:40:53.008Z,-1.9
2017-02-11T00:41:58.365Z,-1.9
2017-02-11T00:43:03.725Z,-1.9
2017-02-11T00:44:09.085Z,-1.9
2017-02-11T00:45:14.439Z,-1.9
2017-02-11T00:46:20.464Z,-1.9
2017-02-11T00:47:25.823Z,-2
2017-02-11T00:48:31.845Z,-2.1
2017-02-11T00:49:37.863Z,-2.1
2017-02-11T00:50:43.890Z,-2.1
2017-02-11T00:51:49.913Z,-2.1
2017-02-11T00:52:55.931Z,-2.1
2017-02-11T00:54:01.947Z,-2.1
2017-02-11T00:55:07.972Z,-2.1
2017-02-11T00:56:13.993Z,-2.1
2017-02-11T00:57:20.017Z,-2.1
2017-02-11T00:58:26.032Z,-2.1
2017-02-11T00:59:32.053Z,-2.2
2017-02-11T01:00:38.076Z,-2.2
2017-02-11T01:01:44.102Z,-2.3
2017-02-11T01:02:50.125Z,-2.3
2017-02-11T01:03:56.145Z,-2.3
2017-02-11T01:05:01.503Z,-2.2
2017-02-11T01:06:07.528Z,-2.3
2017-02-11T01:07:13.544Z,-2.3
2017-02-11T01:08:18.904Z,-2.3
2017-02-11T01:09:24.924Z,-2.3
2017-02-11T01:10:30.291Z,-2.3
2017-02-11T01:11:36.315Z,-2.3
2017-02-11T01:12:41.679Z,-2.4
2017-02-11T01:13:47.704Z,-2.3
2017-02-11T01:14:52.622Z,-2.3
2017-02-11T01:15:56.877Z,-2.4
2017-02-11T01:17:01.797Z,-2.4
2017-02-11T01:18:07.827Z,-2.3
2017-02-11T01:19:13.847Z,-2.4
2017-02-11T01:20:19.206Z,-2.4
2017-02-11T01:21:25.228Z,-2.5
2017-02-11T01:22:31.258Z,-2.5
2017-02-11T01:23:37.281Z,-2.5
2017-02-11T01:24:43.297Z,-2.4
2017-02-11T01:25:48.665Z,-2.5
2017-02-11T01:26:53.584Z,-2.5
2017-02-11T01:27:57.845Z,-2.5
2017-02-11T01:29:03.863Z,-2.4
2017-02-11T01:30:09.885Z,-2.4
2017-02-11T01:31:15.909Z,-2.5
2017-02-11T01:32:21.923Z,-2.4
2017-02-11T01:33:26.182Z,-2.5
2017-02-11T01:34:32.200Z,-2.4
2017-02-11T01:35:38.224Z,-2.4
2017-02-11T01:36:42.485Z,-2.3
2017-02-11T01:37:48.508Z,-2.3
2017-02-11T01:38:54.529Z,-2.3
2017-02-11T01:39:59.893Z,-2.3
2017-02-11T01:41:05.909Z,-2.2
2017-02-11T01:42:11.934Z,-2.2
2017-02-11T01:43:17.955Z,-2.2
2017-02-11T01:44:23.973Z,-2.2
2017-02-11T01:45:29.993Z,-2.3
2017-02-11T01:46:36.014Z,-2.3
2017-02-11T01:47:42.032Z,-2.3
2017-02-11T01:48:46.953Z,-2.3
2017-02-11T01:49:52.973Z,-2.3
2017-02-11T01:50:58.995Z,-2.3
2017-02-11T01:52:05.016Z,-2.3
2017-02-11T01:53:11.037Z,-2.3
2017-02-11T01:54:17.062Z,-2.3
2017-02-11T01:55:23.084Z,-2.3
2017-02-11T01:56:29.096Z,-2.3
2017-02-11T01:57:35.123Z,-2.2
2017-02-11T01:58:41.146Z,-2.2
2017-02-11T01:59:47.168Z,-2.3
2017-02-11T02:00:53.196Z,-2.3
2017-02-11T02:01:59.222Z,-2.3
2017-02-11T02:03:04.581Z,-2.3
2017-02-11T02:04:10.599Z,-2.3
2017-02-11T02:05:16.620Z,-2.3
2017-02-11T02:06:21.984Z,-2.3
2017-02-11T02:07:28.004Z,-2.3
2017-02-11T02:08:34.027Z,-2.3
2017-02-11T02:09:40.047Z,-2.4
2017-02-11T02:10:46.074Z,-2.3
2017-02-11T02:11:52.094Z,-2.4
2017-02-11T02:12:58.116Z,-2.3
2017-02-11T02:14:04.144Z,-2.3
2017-02-11T02:15:10.164Z,-2.4
2017-02-11T02:16:16.186Z,-2.3
2017-02-11T02:17:22.205Z,-2.3
2017-02-11T02:18:28.229Z,-2.3
2017-02-11T02:19:34.259Z,-2.3
2017-02-11T02:20:40.275Z,-2.3
2017-02-11T02:21:46.294Z,-2.3
2017-02-11T02:22:51.217Z,-2.3
2017-02-11T02:23:57.241Z,-2.3
2017-02-11T02:25:02.599Z,-2.4
2017-02-11T02:26:08.617Z,-2.4
2017-02-11T02:27:14.648Z,-2.4
2017-02-11T02:28:20.670Z,-2.4
2017-02-11T02:29:26.689Z,-2.4
2017-02-11T02:30:30.954Z,-2.4
2017-02-11T02:31:36.973Z,-2.3
2017-02-11T02:32:43.000Z,-2.3
2017-02-11T02:33:49.019Z,-2.3
2017-02-11T02:34:54.382Z,-2.2
2017-02-11T02:36:00.396Z,-2.3
2017-02-11T02:37:06.413Z,-2.3
2017-02-11T02:38:12.439Z,-2.3
2017-02-11T02:39:18.468Z,-2.3
2017-02-11T02:40:24.488Z,-2.3
2017-02-11T02:41:30.517Z,-2.3
2017-02-11T02:42:36.534Z,-2.3
2017-02-11T02:43:42.556Z,-2.2
2017-02-11T02:44:47.910Z,-2.2
2017-02-11T02:45:53.960Z,-2.3
2017-02-11T02:46:59.950Z,-2.3
2017-02-11T02:48:05.978Z,-2.3
2017-02-11T02:49:12.007Z,-2.2
2017-02-11T02:50:16.939Z,-2.2
2017-02-11T02:51:22.957Z,-2.2
2017-02-11T02:52:28.981Z,-2.3
2017-02-11T02:53:35.002Z,-2.2
2017-02-11T02:54:40.366Z,-2.2
2017-02-11T02:55:46.386Z,-2.2
2017-02-11T02:56:52.404Z,-2.3
2017-02-11T02:57:58.432Z,-2.2
2017-02-11T02:59:04.457Z,-2.2
2017-02-11T03:00:10.485Z,-2.2
2017-02-11T03:01:15.841Z,-2.2
2017-02-11T03:02:21.864Z,-2.2
2017-02-11T03:03:27.884Z,-2.2
2017-02-11T03:04:33.912Z,-2.2
2017-02-11T03:05:39.936Z,-2.2
2017-02-11T03:06:45.958Z,-2.2
2017-02-11T03:07:51.981Z,-2.2
2017-02-11T03:08:58.001Z,-2.2
2017-02-11T03:10:04.023Z,-2.2
2017-02-11T03:11:10.038Z,-2.1
2017-02-11T03:12:15.397Z,-2.1
2017-02-11T03:13:21.419Z,-2.1
2017-02-11T03:14:26.778Z,-2.1
2017-02-11T03:15:32.807Z,-2.1
2017-02-11T03:16:38.829Z,-2.2
2017-02-11T03:17:44.851Z,-2.2
2017-02-11T03:18:50.876Z,-2.2
2017-02-11T03:19:56.238Z,-2.1
2017-02-11T03:21:02.264Z,-2.1
2017-02-11T03:22:08.285Z,-2.2
2017-02-11T03:23:14.306Z,-2.2
2017-02-11T03:24:20.332Z,-2.2
2017-02-11T03:25:26.359Z,-2.2
2017-02-11T03:26:32.385Z,-2.2
2017-02-11T03:27:38.398Z,-2.1
2017-02-11T03:28:44.414Z,-2.1
2017-02-11T03:29:50.440Z,-2.1
2017-02-11T03:30:56.466Z,-2.1
2017-02-11T03:32:02.482Z,-2.2
2017-02-11T03:33:07.404Z,-2.1
2017-02-11T03:34:13.433Z,-2.1
2017-02-11T03:35:18.350Z,-2.1
2017-02-11T03:36:23.705Z,-2.1
2017-02-11T03:37:29.722Z,-2.1
2017-02-11T03:38:35.744Z,-2.1
2017-02-11T03:39:41.771Z,-2.1
2017-02-11T03:40:47.796Z,-2.1
2017-02-11T03:41:53.814Z,-2.1
2017-02-11T03:42:59.835Z,-2.1
2017-02-11T03:44:05.194Z,-2.1
2017-02-11T03:45:11.219Z,-2.1
2017-02-11T03:46:17.239Z,-2.1
2017-02-11T03:47:23.262Z,-2.1
2017-02-11T03:48:29.287Z,-2.1
2017-02-11T03:49:35.311Z,-2.1
2017-02-11T03:50:41.336Z,-2.1
2017-02-11T03:51:47.362Z,-2
2017-02-11T03:52:53.375Z,-2.1
2017-02-11T03:53:59.396Z,-2.1
2017-02-11T03:55:05.419Z,-2.1
2017-02-11T03:56:11.449Z,-2.1
2017-02-11T03:57:17.469Z,-2.1
2017-02-11T03:58:23.493Z,-2.1
2017-02-11T03:59:29.520Z,-2.1
2017-02-11T04:00:35.543Z,-2.2
2017-02-11T04:01:41.558Z,-2.1
2017-02-11T04:02:46.915Z,-2.1
2017-02-11T04:03:52.943Z,-2.1
2017-02-11T04:04:58.964Z,-2.1
2017-02-11T04:06:04.983Z,-2.1
2017-02-11T04:07:11.010Z,-2
2017-02-11T04:08:17.034Z,-2.1
2017-02-11T04:09:22.390Z,-2.1
2017-02-11T04:10:28.410Z,-2.1
2017-02-11T04:11:34.429Z,-2.1
2017-02-11T04:12:40.452Z,-2.1
2017-02-11T04:13:46.474Z,-2
2017-02-11T04:14:52.498Z,-2
2017-02-11T04:15:58.527Z,-2
2017-02-11T04:17:04.555Z,-2
2017-02-11T04:18:10.573Z,-2
2017-02-11T04:19:16.591Z,-2
2017-02-11T04:20:22.615Z,-2
2017-02-11T04:21:28.634Z,-2
2017-02-11T04:22:34.653Z,-2
2017-02-11T04:23:40.672Z,-2
2017-02-11T04:24:45.603Z,-2
2017-02-11T04:25:50.962Z,-2
2017-02-11T04:26:56.985Z,-2
2017-02-11T04:28:03.007Z,-2
2017-02-11T04:29:09.026Z,-2
2017-02-11T04:30:15.045Z,-2
2017-02-11T04:31:21.068Z,-2
2017-02-11T04:32:27.092Z,-2
2017-02-11T04:33:33.109Z,-2
2017-02-11T04:34:39.137Z,-2
2017-02-11T04:35:45.163Z,-2
2017-02-11T04:36:51.184Z,-2
2017-02-11T04:37:57.212Z,-1.9
2017-02-11T04:39:01.472Z,-2
2017-02-11T04:40:07.493Z,-2
2017-02-11T04:41:13.514Z,-2
2017-02-11T04:42:19.534Z,-2
2017-02-11T04:43:24.233Z,-2
2017-02-11T04:44:30.258Z,-2
2017-02-11T04:45:36.283Z,-2
2017-02-11T04:46:42.310Z,-2
2017-02-11T04:47:48.328Z,-2
2017-02-11T04:48:54.343Z,-1.9
2017-02-11T04:50:00.374Z,-1.9
2017-02-11T04:51:05.737Z,-1.9
2017-02-11T04:52:11.757Z,-2
2017-02-11T04:53:17.783Z,-2
2017-02-11T04:54:23.812Z,-2
2017-02-11T04:55:29.837Z,-2
2017-02-11T04:56:35.855Z,-2
2017-02-11T04:57:41.871Z,-1.9
2017-02-11T04:58:47.893Z,-2
2017-02-11T04:59:53.917Z,-1.9
2017-02-11T05:00:59.938Z,-1.9
2017-02-11T05:02:05.959Z,-2
2017-02-11T05:03:11.987Z,-2
2017-02-11T05:04:18.003Z,-2
2017-02-11T05:05:24.026Z,-2
2017-02-11T05:06:30.053Z,-2
2017-02-11T05:07:36.072Z,-2
2017-02-11T05:08:42.097Z,-2
2017-02-11T05:09:48.122Z,-2
2017-02-11T05:10:54.148Z,-2
2017-02-11T05:12:00.169Z,-2
2017-02-11T05:13:06.196Z,-1.9
2017-02-11T05:14:12.222Z,-1.9
2017-02-11T05:15:18.237Z,-1.9
2017-02-11T05:16:24.264Z,-1.9
2017-02-11T05:17:30.286Z,-1.9
2017-02-11T05:18:36.306Z,-1.9
2017-02-11T05:19:42.327Z,-1.9
2017-02-11T05:20:48.348Z,-1.9
2017-02-11T05:21:54.371Z,-1.9
2017-02-11T05:23:00.394Z,-2
2017-02-11T05:24:06.426Z,-1.9
2017-02-11T05:25:11.779Z,-1.9
2017-02-11T05:26:17.144Z,-1.9
2017-02-11T05:27:23.164Z,-1.8
2017-02-11T05:28:29.196Z,-1.8
2017-02-11T05:29:35.214Z,-1.8
2017-02-11T05:30:41.242Z,-1.8
2017-02-11T05:31:47.264Z,-1.7
2017-02-11T05:32:53.289Z,-1.8
2017-02-11T05:33:59.308Z,-1.8
2017-02-11T05:35:04.670Z,-1.7
2017-02-11T05:36:10.694Z,-1.7
2017-02-11T05:37:16.711Z,-1.7
2017-02-11T05:38:22.733Z,-1.7
2017-02-11T05:39:28.750Z,-1.7
2017-02-11T05:40:34.774Z,-1.7
2017-02-11T05:41:40.139Z,-1.6
2017-02-11T05:42:46.163Z,-1.7
2017-02-11T05:43:52.183Z,-1.7
2017-02-11T05:44:58.204Z,-1.7
2017-02-11T05:46:02.459Z,-1.6
2017-02-11T05:47:08.483Z,-1.6
2017-02-11T05:48:14.518Z,-1.6
2017-02-11T05:49:20.536Z,-1.6
2017-02-11T05:50:25.891Z,-1.6
2017-02-11T05:51:31.910Z,-1.6
2017-02-11T05:52:37.936Z,-1.6
2017-02-11T05:53:43.958Z,-1.6
2017-02-11T05:54:49.981Z,-1.6
2017-02-11T05:55:56.008Z,-1.6
2017-02-11T05:57:02.030Z,-1.6
2017-02-11T05:58:08.043Z,-1.6
2017-02-11T05:59:14.067Z,-1.6
2017-02-11T06:00:20.091Z,-1.6
2017-02-11T06:01:26.115Z,-1.6
2017-02-11T06:02:32.133Z,-1.6
2017-02-11T06:03:38.158Z,-1.6
2017-02-11T06:04:44.198Z,-1.5
2017-02-11T06:05:49.537Z,-1.6
2017-02-11T06:06:55.564Z,-1.6
2017-02-11T06:08:01.589Z,-1.6
2017-02-11T06:09:06.950Z,-1.6
2017-02-11T06:10:12.968Z,-1.5
2017-02-11T06:11:18.991Z,-1.5
2017-02-11T06:12:25.020Z,-1.5
2017-02-11T06:13:31.046Z,-1.5
2017-02-11T06:14:37.067Z,-1.5
2017-02-11T06:15:43.090Z,-1.6
2017-02-11T06:16:48.458Z,-1.6
2017-02-11T06:17:54.477Z,-1.6
2017-02-11T06:19:00.495Z,-1.5
2017-02-11T06:20:06.509Z,-1.5
2017-02-11T06:21:12.536Z,-1.5
2017-02-11T06:22:18.558Z,-1.6
2017-02-11T06:23:24.582Z,-1.6
2017-02-11T06:24:30.600Z,-1.5
2017-02-11T06:25:36.614Z,-1.5
2017-02-11T06:26:42.638Z,-1.5
2017-02-11T06:27:48.660Z,-1.5
2017-02-11T06:28:54.678Z,-1.5
2017-02-11T06:30:00.700Z,-1.5
2017-02-11T06:31:06.058Z,-1.5
2017-02-11T06:32:10.979Z,-1.5
2017-02-11T06:33:15.901Z,-1.5
2017-02-11T06:34:21.919Z,-1.4
2017-02-11T06:35:27.940Z,-1.5
2017-02-11T06:36:33.432Z,-1.4
2017-02-11T06:41:43.874Z,-1.4
2017-02-11T06:42:49.226Z,-1.5
2017-02-11T06:43:55.494Z,-1.5
2017-02-11T06:45:05.362Z,-1.5
2017-02-11T06:46:12.451Z,-1.4
2017-02-11T06:47:18.451Z,-1.4
2017-02-11T06:48:23.792Z,-1.4
2017-02-11T06:49:29.048Z,-1.4
2017-02-11T06:50:35.033Z,-1.5
2017-02-11T06:51:39.937Z,-1.4
2017-02-11T06:52:45.951Z,-1.5
2017-02-11T06:53:51.976Z,-1.4
2017-02-11T06:54:58.006Z,-1.5
2017-02-11T06:56:04.054Z,-1.4
2017-02-11T06:57:10.144Z,-1.4
2017-02-11T06:58:16.067Z,-1.4
2017-02-11T06:59:22.283Z,-1.4
2017-02-11T07:00:28.062Z,-1.4
2017-02-11T07:01:33.442Z,-1.4
2017-02-11T07:02:39.421Z,-1.4
2017-02-11T07:03:45.424Z,-1.4
2017-02-11T07:04:51.455Z,-1.4
2017-02-11T07:05:57.717Z,-1.4
2017-02-11T07:07:02.571Z,-1.4
2017-02-11T07:08:08.646Z,-1.4
2017-02-11T07:09:14.569Z,-1.3
2017-02-11T07:10:19.911Z,-1.3
2017-02-11T07:11:25.919Z,-1.3
2017-02-11T07:12:31.938Z,-1.3
2017-02-11T07:13:37.946Z,-1.3
2017-02-11T07:14:43.961Z,-1.4
2017-02-11T07:15:49.967Z,-1.3
2017-02-11T07:16:55.318Z,-1.4
2017-02-11T07:18:01.323Z,-1.4
2017-02-11T07:19:06.680Z,-1.4
2017-02-11T07:20:12.686Z,-1.4
2017-02-11T07:21:18.680Z,-1.4
2017-02-11T07:22:24.665Z,-1.3
2017-02-11T07:23:30.678Z,-1.3
2017-02-11T07:24:36.032Z,-1.3
2017-02-11T07:25:42.042Z,-1.4
2017-02-11T07:26:48.049Z,-1.4
2017-02-11T07:27:54.049Z,-1.4
2017-02-11T07:29:00.052Z,-1.4
2017-02-11T07:30:06.064Z,-1.5
2017-02-11T07:31:12.076Z,-1.5
2017-02-11T07:32:18.080Z,-1.5
2017-02-11T07:33:24.113Z,-1.5
2017-02-11T07:34:30.105Z,-1.4
2017-02-11T07:35:36.165Z,-1.4
2017-02-11T07:36:41.540Z,-1.3
2017-02-11T07:37:47.565Z,-1.3
2017-02-11T07:38:53.637Z,-1.3
2017-02-11T07:39:59.665Z,-1.2
2017-02-11T07:41:05.726Z,-1.3
2017-02-11T07:42:11.723Z,-1.3
2017-02-11T07:43:17.836Z,-1.2
2017-02-11T07:44:23.843Z,-1.2
2017-02-11T07:45:29.840Z,-1.2
2017-02-11T07:46:34.733Z,-1.2
2017-02-11T07:47:40.741Z,-1.3
2017-02-11T07:48:46.739Z,-1.3
2017-02-11T07:49:52.759Z,-1.2
2017-02-11T07:50:58.764Z,-1.2
2017-02-11T07:52:04.773Z,-1.2
2017-02-11T07:53:10.770Z,-1.2
2017-02-11T07:54:16.771Z,-1.2
2017-02-11T07:55:22.776Z,-1.2
2017-02-11T07:56:28.776Z,-1.2
2017-02-11T07:57:34.778Z,-1.2
2017-02-11T07:58:40.121Z,-1.3
2017-02-11T07:59:46.127Z,-1.2
2017-02-11T08:00:50.361Z,-1.2
2017-02-11T08:01:56.372Z,-1.2
2017-02-11T08:03:02.369Z,-1.3
2017-02-11T08:04:08.367Z,-1.2
2017-02-11T08:05:14.362Z,-1.1
2017-02-11T08:06:20.367Z,-1.1
2017-02-11T08:07:26.361Z,-1.2
2017-02-11T08:08:32.365Z,-1.2
2017-02-11T08:09:37.878Z,-1.1
2017-02-11T08:10:43.886Z,-1.1
2017-02-11T08:11:49.884Z,-1.1
2017-02-11T08:12:55.888Z,-1.1
2017-02-11T08:14:01.890Z,-1
2017-02-11T08:15:07.890Z,-1.1
2017-02-11T08:16:13.233Z,-1.1
2017-02-11T08:17:19.236Z,-1.1
2017-02-11T08:18:25.235Z,-1
2017-02-11T08:19:31.238Z,-0.9
2017-02-11T08:20:37.237Z,-0.9
2017-02-11T08:21:43.239Z,-0.9
2017-02-11T08:22:49.236Z,-0.9
2017-02-11T08:23:55.243Z,-0.9
2017-02-11T08:25:00.577Z,-0.9
2017-02-11T08:26:06.570Z,-0.9
2017-02-11T08:27:12.749Z,-1
2017-02-11T08:28:18.580Z,-0.9
2017-02-11T08:29:24.582Z,-0.8
2017-02-11T08:30:30.576Z,-0.8
2017-02-11T08:31:36.823Z,-0.8
2017-02-11T08:32:42.591Z,-0.9
2017-02-11T08:33:48.596Z,-0.9
2017-02-11T08:34:54.589Z,-1
2017-02-11T08:35:59.933Z,-1
2017-02-11T08:37:06.076Z,-1.1
2017-02-11T08:38:12.079Z,-1
2017-02-11T08:39:18.077Z,-1
2017-02-11T08:40:24.077Z,-1
2017-02-11T08:41:30.080Z,-1
2017-02-11T08:42:36.089Z,-0.9
2017-02-11T08:43:42.096Z,-1
2017-02-11T08:44:47.432Z,-1
2017-02-11T08:45:53.428Z,-0.9
2017-02-11T08:46:59.433Z,-0.9
2017-02-11T08:48:04.774Z,-0.8
2017-02-11T08:49:10.782Z,-0.8
2017-02-11T08:50:16.780Z,-0.8
2017-02-11T08:51:22.780Z,-0.8
2017-02-11T08:52:28.783Z,-0.7
2017-02-11T08:53:34.783Z,-0.7
2017-02-11T08:54:40.782Z,-0.7
2017-02-11T08:55:45.683Z,-0.7
2017-02-11T08:56:51.012Z,-0.7
2017-02-11T08:57:57.016Z,-0.8
2017-02-11T08:59:03.018Z,-0.7
2017-02-11T09:00:09.018Z,-0.7
2017-02-11T09:01:15.015Z,-0.7
2017-02-11T09:02:21.016Z,-0.8
2017-02-11T09:03:26.361Z,-0.9
2017-02-11T09:04:32.361Z,-0.9
2017-02-11T09:05:38.359Z,-0.8
2017-02-11T09:06:44.361Z,-0.7
2017-02-11T09:07:49.266Z,-0.7
2017-02-11T09:08:55.267Z,-0.7
2017-02-11T09:10:01.263Z,-0.8
2017-02-11T09:11:07.263Z,-0.8
2017-02-11T09:12:13.265Z,-0.8
2017-02-11T09:13:19.267Z,-0.9
2017-02-11T09:14:25.265Z,-0.8
2017-02-11T09:15:31.263Z,-0.8
2017-02-11T09:16:37.268Z,-0.8
2017-02-11T09:17:43.274Z,-0.8
2017-02-11T09:18:49.275Z,-0.7
2017-02-11T09:19:54.175Z,-0.6
2017-02-11T09:21:00.177Z,-0.6
2017-02-11T09:22:05.078Z,-0.6
2017-02-11T09:23:11.075Z,-0.8
2017-02-11T09:24:17.076Z,-0.8
2017-02-11T09:25:23.075Z,-0.8
2017-02-11T09:26:29.075Z,-0.8
2017-02-11T09:27:35.080Z,-0.8
2017-02-11T09:28:41.082Z,-0.8
2017-02-11T09:29:47.083Z,-0.7
2017-02-11T09:30:53.080Z,-0.6
2017-02-11T09:31:59.080Z,-0.6
2017-02-11T09:33:05.082Z,-0.6
2017-02-11T09:34:11.085Z,-0.6
2017-02-11T09:35:17.080Z,-0.5
2017-02-11T09:36:23.076Z,-0.5
2017-02-11T09:37:29.081Z,-0.4
2017-02-11T09:38:35.081Z,-0.5
2017-02-11T09:39:41.074Z,-0.6
2017-02-11T09:40:45.977Z,-0.6
2017-02-11T09:41:51.982Z,-0.6
2017-02-11T09:42:57.984Z,-0.4
2017-02-11T09:44:03.983Z,-0.4
2017-02-11T09:45:09.980Z,-0.4
2017-02-11T09:46:15.988Z,-0.3
2017-02-11T09:47:21.984Z,-0.2
2017-02-11T09:48:27.983Z,-0.3
2017-02-11T09:49:33.980Z,-0.5
2017-02-11T09:50:39.320Z,-0.4
2017-02-11T09:51:45.322Z,-0.3
2017-02-11T09:52:51.317Z,-0.3
2017-02-11T09:53:57.319Z,-0.3
2017-02-11T09:55:03.327Z,-0.3
2017-02-11T09:56:09.329Z,-0.2
2017-02-11T09:57:15.326Z,-0.1
2017-02-11T09:58:21.328Z,0
2017-02-11T09:59:27.333Z,-0.1
2017-02-11T10:00:55.732Z,-0.2
2017-02-11T10:02:01.728Z,-0.1
2017-02-11T10:03:06.631Z,-0.1
2017-02-11T10:04:12.633Z,-0.1
2017-02-11T10:05:17.965Z,-0.3
2017-02-11T10:06:23.969Z,-0.2
2017-02-11T10:07:28.866Z,-0.2
2017-02-11T10:08:34.873Z,-0.2
2017-02-11T10:09:40.873Z,-0.2
2017-02-11T10:10:46.871Z,-0.2
2017-02-11T10:11:52.872Z,-0.2
2017-02-11T10:12:58.877Z,-0.2
2017-02-11T10:14:04.875Z,-0.1
2017-02-11T10:15:10.870Z,-0.1
2017-02-11T10:16:16.873Z,-0.1
2017-02-11T10:17:22.874Z,-0.1
2017-02-11T10:18:28.211Z,-0.1
2017-02-11T10:19:34.208Z,-0.2
2017-02-11T10:20:40.214Z,-0.1
2017-02-11T10:21:46.212Z,-0.1
2017-02-11T10:22:52.218Z,-0.1
2017-02-11T10:23:58.217Z,-0.1
2017-02-11T10:25:04.218Z,-0.1
2017-02-11T10:26:10.216Z,0
2017-02-11T10:27:16.217Z,0
2017-02-11T10:28:22.215Z,0
2017-02-11T10:29:27.547Z,0
2017-02-11T10:30:33.554Z,-0.1
2017-02-11T10:31:39.556Z,-0.2
2017-02-11T10:32:45.551Z,-0.2
2017-02-11T10:33:51.557Z,-0.1
2017-02-11T10:34:57.558Z,0
2017-02-11T10:36:03.551Z,0
2017-02-11T10:37:09.541Z,0
2017-02-11T10:38:15.539Z,0.1
2017-02-11T10:39:21.540Z,0.1
2017-02-11T10:40:27.534Z,0.2
2017-02-11T10:41:33.546Z,0.3
2017-02-11T10:42:39.544Z,0.4
2017-02-11T10:43:45.548Z,0.4
2017-02-11T10:44:51.534Z,0.3
2017-02-11T10:45:57.537Z,0.3
2017-02-11T10:47:03.539Z,0.5
2017-02-11T10:48:09.532Z,0.6
2017-02-11T10:49:15.526Z,0.8
2017-02-11T10:50:20.864Z,0.9
2017-02-11T10:51:26.866Z,0.9
2017-02-11T10:52:32.867Z,1.1
2017-02-11T10:53:38.859Z,1
2017-02-11T10:54:44.197Z,1
2017-02-11T10:55:50.195Z,0.9
2017-02-11T10:56:55.529Z,1.1
2017-02-11T10:58:00.429Z,1.1
2017-02-11T10:59:06.425Z,1.1
2017-02-11T11:00:12.427Z,0.8
2017-02-11T11:01:18.431Z,1
2017-02-11T11:02:24.426Z,0.7
2017-02-11T11:03:30.424Z,0.6
2017-02-11T11:04:36.423Z,0.7
2017-02-11T11:05:40.653Z,0.8
2017-02-11T11:06:46.652Z,0.8
2017-02-11T11:07:52.648Z,0.8
2017-02-11T11:08:58.641Z,0.9
2017-02-11T11:10:03.973Z,0.9
2017-02-11T11:11:09.980Z,0.9
2017-02-11T11:12:15.971Z,0.9
2017-02-11T11:13:21.969Z,1
2017-02-11T11:14:27.972Z,0.9
2017-02-11T11:15:33.968Z,0.9
2017-02-11T11:16:39.971Z,0.9
2017-02-11T11:17:45.307Z,0.8
2017-02-11T11:18:51.310Z,1
2017-02-11T11:19:56.646Z,1.2
2017-02-11T11:21:01.545Z,1.3
2017-02-11T11:22:07.542Z,1.3
2017-02-11T11:23:12.446Z,1.4
2017-02-11T11:24:18.438Z,1.3
2017-02-11T11:25:24.437Z,1.4
2017-02-11T11:26:29.341Z,1.3
2017-02-11T11:27:35.339Z,1.2
2017-02-11T11:28:40.238Z,1
2017-02-11T11:29:46.231Z,1
2017-02-11T11:30:52.234Z,1
2017-02-11T11:31:58.235Z,1.1
2017-02-11T11:33:04.230Z,1.1
2017-02-11T11:34:10.230Z,1.2
2017-02-11T11:35:16.227Z,1
2017-02-11T11:36:22.229Z,0.9
2017-02-11T11:37:28.226Z,0.9
2017-02-11T11:38:34.228Z,1
2017-02-11T11:39:39.567Z,0.9
2017-02-11T11:40:45.564Z,1
2017-02-11T11:41:51.560Z,1.1
2017-02-11T11:42:57.562Z,1
2017-02-11T11:44:03.565Z,1
2017-02-11T11:45:09.556Z,0.9
2017-02-11T11:46:15.552Z,0.7
2017-02-11T11:47:21.548Z,0.7
2017-02-11T11:48:26.457Z,0.7
2017-02-11T11:49:32.446Z,0.7
2017-02-11T11:50:37.788Z,0.8
2017-02-11T11:51:43.793Z,0.8
2017-02-11T11:52:49.800Z,0.9
2017-02-11T11:53:55.791Z,0.8
2017-02-11T11:55:01.793Z,0.8
2017-02-11T11:56:07.789Z,0.8
2017-02-11T11:57:13.787Z,0.8
2017-02-11T11:58:19.788Z,0.7
2017-02-11T11:59:25.788Z,0.8
2017-02-11T12:00:31.781Z,0.9
2017-02-11T12:01:37.778Z,0.9
2017-02-11T12:02:43.783Z,0.9
2017-02-11T12:03:49.786Z,0.8
2017-02-11T12:04:55.784Z,0.9
2017-02-11T12:06:01.783Z,0.8
2017-02-11T12:07:07.783Z,0.7
2017-02-11T12:08:13.776Z,0.6
2017-02-11T12:09:19.784Z,0.6
2017-02-11T12:10:25.787Z,0.8
2017-02-11T12:11:31.786Z,1
2017-02-11T12:12:37.778Z,1
2017-02-11T12:13:43.784Z,1.1
2017-02-11T12:14:49.802Z,0.9
2017-02-11T12:15:55.142Z,0.6
2017-02-11T12:17:00.489Z,0.6
2017-02-11T12:18:06.477Z,0.7
2017-02-11T12:19:12.504Z,0.6
2017-02-11T12:20:18.484Z,0.6
2017-02-11T12:21:23.815Z,0.8
2017-02-11T12:22:29.819Z,0.8
2017-02-11T12:23:35.833Z,0.8
2017-02-11T12:24:41.834Z,0.7
2017-02-11T12:25:47.860Z,0.7
2017-02-11T12:26:53.821Z,0.7
2017-02-11T12:27:59.821Z,0.7
2017-02-11T12:29:05.814Z,0.7
2017-02-11T12:30:11.817Z,0.7
2017-02-11T12:31:17.813Z,0.7
2017-02-11T12:32:23.143Z,0.7
2017-02-11T12:33:29.139Z,0.6
2017-02-11T12:34:35.141Z,0.6
2017-02-11T12:35:40.483Z,0.5
2017-02-11T12:36:46.491Z,0.5
2017-02-11T12:37:51.396Z,0.5
2017-02-11T12:38:57.392Z,0.5
2017-02-11T12:40:03.417Z,0.6
2017-02-11T12:41:09.409Z,0.7
2017-02-11T12:42:15.403Z,0.5
2017-02-11T12:43:21.396Z,0.6
2017-02-11T12:44:27.397Z,0.7
2017-02-11T12:45:33.395Z,0.6
2017-02-11T12:46:39.393Z,0.6
2017-02-11T12:47:45.401Z,0.5
2017-02-11T12:48:51.399Z,0.5
2017-02-11T12:49:57.404Z,0.4
2017-02-11T12:51:02.742Z,0.3
2017-02-11T12:52:08.747Z,0.4
2017-02-11T12:53:14.084Z,0.2
2017-02-11T12:54:20.083Z,0.2
2017-02-11T12:55:26.090Z,0.3
2017-02-11T12:56:32.085Z,0.2
2017-02-11T12:57:38.081Z,0.1
2017-02-11T12:58:44.076Z,0.2
2017-02-11T12:59:50.082Z,0.3
2017-02-11T13:00:56.072Z,0.2
2017-02-11T13:02:02.080Z,0.3
2017-02-11T13:03:08.085Z,0.3
2017-02-11T13:04:14.081Z,0.3
2017-02-11T13:05:20.099Z,0.2
2017-02-11T13:06:26.086Z,0.1
2017-02-11T13:07:32.091Z,0.1
2017-02-11T13:08:38.074Z,0.1
2017-02-11T13:09:44.069Z,0
2017-02-11T13:10:50.073Z,0.1
2017-02-11T13:11:56.072Z,0.1
2017-02-11T13:13:02.071Z,0.1
2017-02-11T13:14:08.101Z,0.1
2017-02-11T13:15:14.101Z,0.2
2017-02-11T13:16:20.132Z,0.1
2017-02-11T13:17:25.474Z,0.1
2017-02-11T13:18:31.475Z,0.1
2017-02-11T13:19:37.474Z,0
2017-02-11T13:20:43.476Z,0
2017-02-11T13:21:48.368Z,0.1
2017-02-11T13:22:54.384Z,0.1
2017-02-11T13:24:00.375Z,0.2
2017-02-11T13:25:05.299Z,0.1
2017-02-11T13:26:11.294Z,0.1
2017-02-11T13:27:17.300Z,0
2017-02-11T13:28:23.306Z,-0.1
2017-02-11T13:29:28.650Z,-0.1
2017-02-11T13:30:33.549Z,-0.1
2017-02-11T13:31:39.579Z,0
2017-02-11T13:32:45.568Z,0.1
2017-02-11T13:33:51.586Z,0.1
2017-02-11T13:34:57.595Z,0.1
2017-02-11T13:36:03.615Z,0.1
2017-02-11T13:37:09.607Z,0.2
2017-02-11T13:38:15.607Z,0.2
2017-02-11T13:39:21.635Z,0.2
2017-02-11T13:40:27.642Z,0.1
2017-02-11T13:41:33.676Z,0
2017-02-11T13:42:39.029Z,0
2017-02-11T13:43:44.363Z,0
2017-02-11T13:44:50.364Z,0
2017-02-11T13:45:55.722Z,0.1
2017-02-11T13:47:01.725Z,0.1
2017-02-11T13:48:07.720Z,0
2017-02-11T13:49:13.721Z,0
2017-02-11T13:50:19.724Z,-0.1
2017-02-11T13:51:25.726Z,-0.1
2017-02-11T13:52:31.723Z,0
2017-02-11T13:53:37.746Z,0
2017-02-11T13:54:43.721Z,0.1
2017-02-11T13:55:49.721Z,0
2017-02-11T13:56:55.718Z,0.1
2017-02-11T13:58:01.723Z,0
2017-02-11T13:59:07.720Z,0.1
2017-02-11T14:00:13.751Z,0
2017-02-11T14:01:19.722Z,0.1
2017-02-11T14:02:25.730Z,0.1
2017-02-11T14:03:31.728Z,0.1
2017-02-11T14:04:37.732Z,0.1
2017-02-11T14:05:43.733Z,0.1
2017-02-11T14:06:49.817Z,0.1
2017-02-11T14:07:55.880Z,0
2017-02-11T14:09:00.790Z,0.1
2017-02-11T14:10:06.121Z,0.2
2017-02-11T14:11:12.121Z,0.2
2017-02-11T14:12:18.126Z,0.1
2017-02-11T14:13:24.123Z,0.2
2017-02-11T14:14:30.121Z,0.1
2017-02-11T14:15:36.125Z,0.1
2017-02-11T14:16:42.113Z,0.2
2017-02-11T14:17:48.116Z,0.2
2017-02-11T14:18:54.118Z,0.2
2017-02-11T14:20:00.132Z,0.1
2017-02-11T14:21:06.124Z,0.1
2017-02-11T14:22:11.475Z,0.1
2017-02-11T14:23:17.467Z,0.1
2017-02-11T14:24:21.706Z,0.2
2017-02-11T14:25:27.708Z,0.1
2017-02-11T14:26:33.725Z,0.1
2017-02-11T14:27:39.707Z,0.1
2017-02-11T14:28:45.706Z,0.1
2017-02-11T14:29:51.713Z,0.2
2017-02-11T14:30:57.709Z,0.1
2017-02-11T14:32:02.613Z,0
2017-02-11T14:33:08.609Z,0.1
2017-02-11T14:34:13.947Z,0.1
2017-02-11T14:35:19.944Z,0.1
2017-02-11T14:36:25.972Z,0.2
2017-02-11T14:37:31.978Z,0.2
2017-02-11T14:38:37.956Z,0.3
2017-02-11T14:39:43.951Z,0.4
2017-02-11T14:40:49.952Z,0.4
2017-02-11T14:41:55.954Z,0.4
2017-02-11T14:43:01.956Z,0.4
2017-02-11T14:44:07.955Z,0.5
2017-02-11T14:45:13.970Z,0.5
2017-02-11T14:46:20.172Z,0.4
2017-02-11T14:47:26.169Z,0.3
2017-02-11T14:48:32.167Z,0.2
2017-02-11T14:49:38.159Z,0.3
2017-02-11T14:50:43.064Z,0.3
2017-02-11T14:51:48.393Z,0.3
2017-02-11T14:52:54.389Z,0.2
2017-02-11T14:53:59.728Z,0.1
2017-02-11T14:55:05.732Z,0.1
2017-02-11T14:56:11.728Z,0.2
2017-02-11T14:57:17.726Z,0.2